createdAt,value
2018-08-30T00:01:31.429Z,16.90
2018-08-30T00:04:00.138Z,16.03
2018-08-30T00:06:29.678Z,17.40
2018-08-30T00:08:58.505Z,17.80
2018-08-30T00:11:27.841Z,16.83
2018-08-30T00:13:58.283Z,16.87
2018-08-30T00:16:27.789Z,16.60
2018-08-30T00:18:57.931Z,15.90
2018-08-30T00:21:27.917Z,17.00
2018-08-30T00:23:59.313Z,17.60
2018-08-30T00:26:29.414Z,16.80
2018-08-30T00:28:59.149Z,16.90
2018-08-30T00:31:29.603Z,15.83
2018-08-30T00:33:59.183Z,15.37
2018-08-30T00:36:27.969Z,16.50
2018-08-30T00:38:58.040Z,16.77
2018-08-30T00:41:27.581Z,16.70
2018-08-30T00:43:56.590Z,18.57
2018-08-30T00:46:25.377Z,16.53
2018-08-30T00:48:55.436Z,16.00
2018-08-30T00:51:24.391Z,16.23
2018-08-30T00:53:54.033Z,16.30
2018-08-30T00:56:24.157Z,16.87
2018-08-30T00:58:53.416Z,17.17
2018-08-30T01:01:22.230Z,15.50
2018-08-30T01:03:51.809Z,16.97
2018-08-30T01:06:21.585Z,17.40
2018-08-30T01:08:52.456Z,16.80
2018-08-30T01:11:21.375Z,16.47
2018-08-30T01:13:50.848Z,17.40
2018-08-30T01:16:19.984Z,16.40
2018-08-30T01:18:48.809Z,16.20
2018-08-30T01:21:19.184Z,16.90
2018-08-30T01:23:48.739Z,16.50
2018-08-30T01:26:18.885Z,16.93
2018-08-30T01:28:48.557Z,16.90
2018-08-30T01:31:18.039Z,16.83
2018-08-30T01:33:47.917Z,16.73
2018-08-30T01:36:16.873Z,16.87
2018-08-30T01:38:45.738Z,16.30
2018-08-30T01:41:15.734Z,17.53
2018-08-30T01:43:46.224Z,17.83
2018-08-30T01:46:16.197Z,17.33
2018-08-30T01:48:45.859Z,17.20
2018-08-30T01:51:15.243Z,17.60
2018-08-30T01:53:44.747Z,16.47
2018-08-30T01:56:14.282Z,17.77
2018-08-30T01:58:43.963Z,16.10
2018-08-30T02:01:12.944Z,16.40
2018-08-30T02:03:42.077Z,18.10
2018-08-30T02:06:11.008Z,17.30
2018-08-30T02:08:41.416Z,16.60
2018-08-30T02:11:11.226Z,17.37
2018-08-30T02:13:41.541Z,16.30
2018-08-30T02:16:11.899Z,17.90
2018-08-30T02:18:40.990Z,17.03
2018-08-30T02:21:10.800Z,17.03
2018-08-30T02:23:40.748Z,17.77
2018-08-30T02:26:10.163Z,17.10
2018-08-30T02:28:40.129Z,17.10
2018-08-30T02:31:10.082Z,16.23
2018-08-30T02:33:40.174Z,17.80
2018-08-30T02:36:10.943Z,17.23
2018-08-30T02:38:40.933Z,18.40
2018-08-30T02:41:09.833Z,17.90
2018-08-30T02:43:40.289Z,17.30
2018-08-30T02:46:10.723Z,18.27
2018-08-30T02:48:40.457Z,18.13
2018-08-30T02:51:09.677Z,17.20
2018-08-30T02:53:38.616Z,17.67
2018-08-30T02:56:07.401Z,18.30
2018-08-30T02:58:36.796Z,16.20
2018-08-30T03:01:06.179Z,17.20
2018-08-30T03:03:36.128Z,17.43
2018-08-30T03:06:05.185Z,18.73
2018-08-30T03:08:33.978Z,18.20
2018-08-30T03:11:03.693Z,18.57
2018-08-30T03:13:33.301Z,17.40
2018-08-30T03:16:03.672Z,17.63
2018-08-30T03:18:32.649Z,18.00
2018-08-30T03:21:02.599Z,17.27
2018-08-30T03:23:32.337Z,17.67
2018-08-30T03:26:02.177Z,18.50
2018-08-30T03:28:31.688Z,18.80
2018-08-30T03:31:01.307Z,18.40
2018-08-30T03:33:32.086Z,17.30
2018-08-30T03:36:00.772Z,18.93
2018-08-30T03:38:31.504Z,18.23
2018-08-30T03:41:01.445Z,17.93
2018-08-30T03:43:30.327Z,18.23
2018-08-30T03:46:01.070Z,16.73
2018-08-30T03:48:29.946Z,17.10
2018-08-30T03:50:59.950Z,17.67
2018-08-30T03:53:30.074Z,17.73
2018-08-30T03:56:00.099Z,17.57
2018-08-30T03:58:29.513Z,18.00
2018-08-30T04:00:58.215Z,18.20
2018-08-30T04:03:28.486Z,18.33
2018-08-30T04:05:58.446Z,18.63
2018-08-30T04:08:27.141Z,17.83
2018-08-30T04:10:56.512Z,17.73
2018-08-30T04:13:26.254Z,18.10
2018-08-30T04:15:56.607Z,18.50
2018-08-30T04:18:26.668Z,18.53
2018-08-30T04:20:56.114Z,17.93
2018-08-30T04:23:25.812Z,18.37
2018-08-30T04:25:55.802Z,17.23
2018-08-30T04:28:25.128Z,18.40
2018-08-30T04:30:54.668Z,18.67
2018-08-30T04:33:24.327Z,18.90
2018-08-30T04:35:55.488Z,18.33
2018-08-30T04:38:24.921Z,18.77
2018-08-30T04:40:54.925Z,18.63
2018-08-30T04:43:24.093Z,18.03
2018-08-30T04:45:53.881Z,18.17
2018-08-30T04:48:24.448Z,18.03
2018-08-30T04:50:54.648Z,18.30
2018-08-30T04:53:24.112Z,18.60
2018-08-30T04:55:54.846Z,18.27
2018-08-30T04:58:24.511Z,18.37
2018-08-30T05:00:54.376Z,18.60
2018-08-30T05:03:24.738Z,18.03
2018-08-30T05:05:53.947Z,17.77
2018-08-30T05:08:24.255Z,18.70
2018-08-30T05:10:54.499Z,19.50
2018-08-30T05:13:24.300Z,18.30
2018-08-30T05:15:53.649Z,19.77
2018-08-30T05:18:23.213Z,19.27
2018-08-30T05:20:53.003Z,18.70
2018-08-30T05:23:22.117Z,17.97
2018-08-30T05:25:52.138Z,18.10
2018-08-30T05:28:22.470Z,17.50
2018-08-30T05:30:55.621Z,17.10
2018-08-30T05:33:25.256Z,18.67
2018-08-30T05:35:55.433Z,17.27
2018-08-30T05:38:25.313Z,17.30
2018-08-30T05:40:54.507Z,17.97
2018-08-30T05:43:23.767Z,18.27
2018-08-30T05:45:53.261Z,18.80
2018-08-30T05:48:23.592Z,19.17
2018-08-30T05:50:53.041Z,19.33
2018-08-30T05:53:21.923Z,18.90
2018-08-30T05:55:52.669Z,17.67
2018-08-30T05:58:22.230Z,19.27
2018-08-30T06:00:52.391Z,18.40
2018-08-30T06:03:21.388Z,18.30
2018-08-30T06:05:50.517Z,19.57
2018-08-30T06:08:19.620Z,18.50
2018-08-30T06:10:48.737Z,18.37
2018-08-30T06:13:18.274Z,19.30
2018-08-30T06:15:47.937Z,18.37
2018-08-30T06:18:18.626Z,18.67
2018-08-30T06:20:48.275Z,18.87
2018-08-30T06:23:18.840Z,19.40
2018-08-30T06:25:48.839Z,19.83
2018-08-30T06:28:18.429Z,21.47
2018-08-30T06:30:47.168Z,18.47
2018-08-30T06:33:16.051Z,19.27
2018-08-30T06:35:45.359Z,19.80
2018-08-30T06:38:14.938Z,20.40
2018-08-30T06:40:43.853Z,19.60
2018-08-30T06:43:12.952Z,20.03
2018-08-30T06:45:42.485Z,18.80
2018-08-30T06:48:11.990Z,19.93
2018-08-30T06:50:41.053Z,19.67
2018-08-30T06:53:11.911Z,19.70
2018-08-30T06:55:41.100Z,22.10
2018-08-30T06:58:10.196Z,19.30
2018-08-30T07:00:39.256Z,20.43
2018-08-30T07:03:08.263Z,20.03
2018-08-30T07:05:37.374Z,21.23
2018-08-30T07:08:07.527Z,23.17
2018-08-30T07:10:38.328Z,23.03
2018-08-30T07:13:07.783Z,21.53
2018-08-30T07:15:37.918Z,19.27
2018-08-30T07:18:07.558Z,21.20
2018-08-30T07:20:37.620Z,20.97
2018-08-30T07:23:07.031Z,20.17
2018-08-30T07:25:36.703Z,22.43
2018-08-30T07:28:06.040Z,22.30
2018-08-30T07:30:35.825Z,21.30
2018-08-30T07:33:05.679Z,21.53
2018-08-30T07:35:36.297Z,21.33
2018-08-30T07:38:05.200Z,22.77
2018-08-30T07:40:34.005Z,22.70
2018-08-30T07:43:03.478Z,21.20
2018-08-30T07:45:32.624Z,22.67
2018-08-30T07:48:02.114Z,22.83
2018-08-30T07:50:31.342Z,23.40
2018-08-30T07:53:01.404Z,23.43
2018-08-30T07:55:30.201Z,24.00
2018-08-30T07:58:00.408Z,23.30
2018-08-30T08:00:32.003Z,23.33
2018-08-30T08:03:01.821Z,24.23
2018-08-30T08:05:32.765Z,24.03
2018-08-30T08:08:02.806Z,24.73
2018-08-30T08:10:31.997Z,25.07
2018-08-30T08:13:01.484Z,24.97
2018-08-30T08:15:31.627Z,24.80
2018-08-30T08:18:01.430Z,25.47
2018-08-30T08:20:31.208Z,26.10
2018-08-30T08:23:01.951Z,24.60
2018-08-30T08:25:32.224Z,24.43
2018-08-30T08:28:02.289Z,23.60
2018-08-30T08:30:32.140Z,25.10
2018-08-30T08:33:02.884Z,25.17
2018-08-30T08:35:35.007Z,25.30
2018-08-30T08:38:05.773Z,25.03
2018-08-30T08:40:34.870Z,26.17
2018-08-30T08:43:05.051Z,25.43
2018-08-30T08:45:33.774Z,26.23
2018-08-30T08:48:02.939Z,27.03
2018-08-30T08:53:23.159Z,27.50
2018-08-30T08:55:52.976Z,26.80
2018-08-30T08:58:23.120Z,27.13
2018-08-30T09:00:52.381Z,26.60
2018-08-30T09:03:21.802Z,28.50
2018-08-30T09:05:51.177Z,26.30
2018-08-30T09:08:20.587Z,28.77
2018-08-30T09:10:49.611Z,27.13
2018-08-30T09:13:18.618Z,26.20
2018-08-30T09:15:47.989Z,26.83
2018-08-30T09:18:17.968Z,26.93
2018-08-30T09:20:47.236Z,25.83
2018-08-30T09:23:17.389Z,26.53
2018-08-30T09:25:46.744Z,27.00
2018-08-30T09:28:15.646Z,27.50
2018-08-30T09:30:44.965Z,26.40
2018-08-30T09:33:13.838Z,26.57
2018-08-30T09:35:42.832Z,27.47
2018-08-30T09:38:12.758Z,30.20
2018-08-30T09:40:42.733Z,30.40
2018-08-30T09:43:12.996Z,30.43
2018-08-30T09:45:43.594Z,29.73
2018-08-30T09:48:12.815Z,28.57
2018-08-30T09:50:43.852Z,29.10
2018-08-30T09:53:12.930Z,29.27
2018-08-30T09:55:42.762Z,29.73
2018-08-30T09:58:12.331Z,29.93
2018-08-30T10:00:46.519Z,29.10
2018-08-30T10:03:15.841Z,30.67
2018-08-30T10:05:44.968Z,30.93
2018-08-30T10:08:14.627Z,31.70
2018-08-30T10:10:43.910Z,32.60
2018-08-30T10:13:13.503Z,30.43
2018-08-30T10:15:42.769Z,30.30
2018-08-30T10:18:12.094Z,31.73
2018-08-30T10:20:41.166Z,31.87
2018-08-30T10:23:10.670Z,32.67
2018-08-30T10:25:39.980Z,32.23
2018-08-30T10:28:09.141Z,31.53
2018-08-30T10:30:39.553Z,33.03
2018-08-30T10:33:08.768Z,32.90
2018-08-30T10:35:38.938Z,30.83
2018-08-30T10:38:08.128Z,30.50
2018-08-30T10:40:37.232Z,29.77
2018-08-30T10:43:06.408Z,30.73
2018-08-30T10:45:36.178Z,30.57
2018-08-30T10:48:05.151Z,32.90
2018-08-30T10:50:34.943Z,30.07
2018-08-30T10:53:03.946Z,30.10
2018-08-30T10:55:33.347Z,29.87
2018-08-30T10:58:02.497Z,30.20
2018-08-30T11:00:34.479Z,29.57
2018-08-30T11:03:03.963Z,30.87
2018-08-30T11:05:34.333Z,29.40
2018-08-30T11:08:04.153Z,30.63
2018-08-30T11:10:34.699Z,29.53
2018-08-30T11:13:04.298Z,30.20
2018-08-30T11:15:34.427Z,28.93
2018-08-30T11:18:03.717Z,27.50
2018-08-30T11:20:33.462Z,29.37
2018-08-30T11:23:04.808Z,31.17
2018-08-30T11:25:34.352Z,27.87
2018-08-30T11:28:04.694Z,28.33
2018-08-30T11:30:34.965Z,25.47
2018-08-30T11:33:03.930Z,25.20
2018-08-30T11:35:33.052Z,24.37
2018-08-30T11:38:02.258Z,21.23
2018-08-30T11:40:32.144Z,21.50
2018-08-30T11:43:01.821Z,19.53
2018-08-30T11:45:30.929Z,19.50
2018-08-30T11:48:00.800Z,18.87
2018-08-30T11:50:31.157Z,18.30
2018-08-30T11:53:00.869Z,17.03
2018-08-30T11:55:30.445Z,16.73
2018-08-30T11:58:00.222Z,15.63
2018-08-30T12:00:29.658Z,15.00
2018-08-30T12:03:00.055Z,14.10
2018-08-30T12:05:29.859Z,14.50
2018-08-30T12:07:59.720Z,13.80
2018-08-30T12:10:29.415Z,13.80
2018-08-30T12:12:58.723Z,13.63
2018-08-30T12:15:28.869Z,13.63
2018-08-30T12:17:59.417Z,13.90
2018-08-30T12:20:29.159Z,15.20
2018-08-30T12:22:58.110Z,14.10
2018-08-30T12:25:27.331Z,15.80
2018-08-30T12:27:57.159Z,16.43
2018-08-30T12:30:27.174Z,16.30
2018-08-30T12:32:57.162Z,15.83
2018-08-30T12:35:26.752Z,16.60
2018-08-30T12:37:57.277Z,17.00
2018-08-30T12:40:27.365Z,18.23
2018-08-30T12:42:57.190Z,18.33
2018-08-30T12:45:26.017Z,17.10
2018-08-30T12:47:55.799Z,19.07
2018-08-30T12:50:25.388Z,18.13
2018-08-30T12:52:54.585Z,17.70
2018-08-30T12:55:23.739Z,17.90
2018-08-30T12:57:52.782Z,18.37
2018-08-30T13:00:23.675Z,18.17
2018-08-30T13:02:53.039Z,17.80
2018-08-30T13:05:22.610Z,18.77
2018-08-30T13:07:51.849Z,18.03
2018-08-30T13:10:21.237Z,17.90
2018-08-30T13:12:50.639Z,18.77
2018-08-30T13:15:20.566Z,18.40
2018-08-30T13:17:51.026Z,18.10
2018-08-30T13:20:20.003Z,17.70
2018-08-30T13:22:49.454Z,18.00
2018-08-30T13:25:19.316Z,17.43
2018-08-30T13:27:49.368Z,16.93
2018-08-30T13:30:20.354Z,16.80
2018-08-30T13:32:50.289Z,18.10
2018-08-30T13:35:19.783Z,16.90
2018-08-30T13:37:49.390Z,16.60
2018-08-30T13:40:19.169Z,17.03
2018-08-30T13:42:48.216Z,17.73
2018-08-30T13:45:18.703Z,17.17
2018-08-30T13:47:50.761Z,17.33
2018-08-30T13:50:20.330Z,17.77
2018-08-30T13:52:49.956Z,16.67
2018-08-30T13:55:19.050Z,16.30
2018-08-30T13:57:49.141Z,16.93
2018-08-30T14:00:18.723Z,16.20
2018-08-30T14:02:48.495Z,16.43
2018-08-30T14:05:18.063Z,18.20
2018-08-30T14:07:47.898Z,17.10
2018-08-30T14:10:16.841Z,16.60
2018-08-30T14:12:46.452Z,17.17
2018-08-30T14:15:16.308Z,17.30
2018-08-30T14:17:45.953Z,17.50
2018-08-30T14:20:15.534Z,17.10
2018-08-30T14:22:45.850Z,17.63
2018-08-30T14:25:14.825Z,16.20
2018-08-30T14:27:44.794Z,17.03
2018-08-30T14:30:14.935Z,18.03
2018-08-30T14:32:44.461Z,17.20
2018-08-30T14:35:13.781Z,17.20
2018-08-30T14:37:43.435Z,17.73
2018-08-30T14:40:13.540Z,16.57
2018-08-30T14:42:44.266Z,17.27
2018-08-30T14:45:13.754Z,17.97
2018-08-30T14:47:42.980Z,17.80
2018-08-30T14:50:12.449Z,17.53
2018-08-30T14:52:41.902Z,16.90
2018-08-30T14:55:11.384Z,18.40
2018-08-30T14:57:41.421Z,17.10
2018-08-30T15:00:11.245Z,17.90
2018-08-30T15:02:40.738Z,17.13
2018-08-30T15:05:10.921Z,17.27
2018-08-30T15:07:40.565Z,17.57
2018-08-30T15:10:09.820Z,17.13
2018-08-30T15:12:39.380Z,17.37
2018-08-30T15:15:09.510Z,17.73
2018-08-30T15:17:38.472Z,16.80
2018-08-30T15:20:08.401Z,16.50
2018-08-30T15:22:38.142Z,16.93
2018-08-30T15:25:08.656Z,16.70
2018-08-30T15:27:37.586Z,17.00
2018-08-30T15:30:07.272Z,15.50
2018-08-30T15:32:36.769Z,16.93
2018-08-30T15:35:06.602Z,16.40
2018-08-30T15:37:35.722Z,16.73
2018-08-30T15:40:05.881Z,17.07
2018-08-30T15:42:35.444Z,17.07
2018-08-30T15:45:05.958Z,16.90
2018-08-30T15:47:36.382Z,18.30
2018-08-30T15:50:06.194Z,18.03
2018-08-30T15:52:35.382Z,17.10
2018-08-30T15:55:05.195Z,18.37
2018-08-30T15:57:34.699Z,17.43
2018-08-30T16:00:03.681Z,16.97
2018-08-30T16:02:33.738Z,17.43
2018-08-30T16:05:02.872Z,17.07
2018-08-30T16:07:32.384Z,18.13
2018-08-30T16:10:02.820Z,16.87
2018-08-30T16:12:32.846Z,17.07
2018-08-30T16:15:03.225Z,17.03
2018-08-30T16:17:32.614Z,18.17
2018-08-30T16:20:02.382Z,17.60
2018-08-30T16:22:42.646Z,16.60
2018-08-30T16:25:11.841Z,17.00
2018-08-30T16:27:41.123Z,16.50
2018-08-30T16:30:11.490Z,17.00
2018-08-30T16:32:42.342Z,18.33
2018-08-30T16:35:12.100Z,16.90
2018-08-30T16:37:41.934Z,16.50
2018-08-30T16:40:12.974Z,16.50
2018-08-30T16:42:42.848Z,17.67
2018-08-30T16:45:12.507Z,16.53
2018-08-30T16:47:41.759Z,16.43
2018-08-30T16:50:11.651Z,17.10
2018-08-30T16:52:42.202Z,17.43
2018-08-30T16:55:12.940Z,16.37
2018-08-30T16:57:42.066Z,16.17
2018-08-30T17:00:11.267Z,16.97
2018-08-30T17:02:41.098Z,15.87
2018-08-30T17:05:11.027Z,15.80
2018-08-30T17:07:40.298Z,16.37
2018-08-30T17:10:10.761Z,15.73
2018-08-30T17:12:39.696Z,14.80
2018-08-30T17:15:08.687Z,12.40
2018-08-30T17:17:39.022Z,12.87
2018-08-30T17:20:11.207Z,11.80
2018-08-30T17:22:41.149Z,12.70
2018-08-30T17:25:10.374Z,12.63
2018-08-30T17:27:39.712Z,12.87
2018-08-30T17:30:09.145Z,13.37
2018-08-30T17:32:38.623Z,14.53
2018-08-30T17:35:08.976Z,15.03
2018-08-30T17:37:38.330Z,14.27
2018-08-30T17:40:07.814Z,16.20
2018-08-30T17:42:37.535Z,15.97
2018-08-30T17:45:07.327Z,16.73
2018-08-30T17:47:37.169Z,16.93
2018-08-30T17:50:06.717Z,17.50
2018-08-30T17:52:36.972Z,16.77
2018-08-30T17:55:08.234Z,18.10
2018-08-30T17:57:37.922Z,17.83
2018-08-30T18:00:08.866Z,16.67
2018-08-30T18:02:38.589Z,16.67
2018-08-30T18:05:07.921Z,17.43
2018-08-30T18:07:37.103Z,15.90
2018-08-30T18:10:07.784Z,15.67
2018-08-30T18:12:37.059Z,15.50
2018-08-30T18:15:07.101Z,16.60
2018-08-30T18:17:36.028Z,15.50
2018-08-30T18:20:05.787Z,15.10
2018-08-30T18:22:36.482Z,14.87
2018-08-30T18:25:06.679Z,14.63
2018-08-30T18:27:35.969Z,15.90
2018-08-30T18:30:05.094Z,14.27
2018-08-30T18:32:34.852Z,14.80
2018-08-30T18:35:04.617Z,15.50
2018-08-30T18:37:34.037Z,16.17
2018-08-30T18:40:04.366Z,15.50
2018-08-30T18:42:34.590Z,14.00
2018-08-30T18:45:04.586Z,15.17
2018-08-30T18:47:33.667Z,16.17
2018-08-30T18:50:03.102Z,16.10
2018-08-30T18:52:33.418Z,16.27
2018-08-30T18:55:03.353Z,16.47
2018-08-30T18:57:33.737Z,16.90
2018-08-30T19:00:04.519Z,15.07
2018-08-30T19:02:34.301Z,15.70
2018-08-30T19:05:03.308Z,15.97
2018-08-30T19:07:32.945Z,16.50
2018-08-30T19:10:03.251Z,16.00
2018-08-30T19:12:34.465Z,15.70
2018-08-30T19:15:09.402Z,15.60
2018-08-30T19:17:43.910Z,15.73
2018-08-30T19:20:13.752Z,15.17
2018-08-30T19:22:43.658Z,14.43
2018-08-30T19:25:17.097Z,14.90
2018-08-30T19:27:47.726Z,13.27
2018-08-30T19:30:21.717Z,14.60
2018-08-30T19:32:52.309Z,14.53
2018-08-30T19:36:26.545Z,13.93
2018-08-30T19:38:57.425Z,14.50
2018-08-30T19:41:26.742Z,15.53
2018-08-30T19:43:57.224Z,14.30
2018-08-30T19:46:26.531Z,14.60
2018-08-30T19:48:57.000Z,13.80
2018-08-30T19:51:26.710Z,16.00
2018-08-30T19:53:56.301Z,13.37
2018-08-30T19:56:26.183Z,14.70
2018-08-30T19:58:55.819Z,13.53
2018-08-30T20:01:25.257Z,12.90
2018-08-30T20:03:55.601Z,14.20
2018-08-30T20:06:24.965Z,13.27
2018-08-30T20:08:54.110Z,13.00
2018-08-30T20:11:29.451Z,13.80
2018-08-30T20:13:58.487Z,13.37
2018-08-30T20:16:28.286Z,13.50
2018-08-30T20:18:57.759Z,13.47
2018-08-30T20:21:27.168Z,13.70
2018-08-30T20:23:57.431Z,13.17
2018-08-30T20:26:27.110Z,12.60
2018-08-30T20:28:56.841Z,13.27
2018-08-30T20:31:26.135Z,12.90
2018-08-30T20:33:55.541Z,12.70
2018-08-30T20:36:25.350Z,13.17
2018-08-30T20:38:54.677Z,12.53
2018-08-30T20:41:24.480Z,12.60
2018-08-30T20:43:54.626Z,12.60
2018-08-30T20:46:24.484Z,14.20
2018-08-30T20:48:55.325Z,12.10
2018-08-30T20:51:24.718Z,11.70
2018-08-30T20:53:53.801Z,12.27
2018-08-30T20:56:23.352Z,12.67
2018-08-30T20:58:53.444Z,12.47
2018-08-30T21:01:24.145Z,12.60
2018-08-30T21:03:54.873Z,11.77
2018-08-30T21:06:24.815Z,12.40
2018-08-30T21:08:53.782Z,13.03
2018-08-30T21:11:23.622Z,11.90
2018-08-30T21:13:53.819Z,12.43
2018-08-30T21:16:23.587Z,13.10
2018-08-30T21:18:52.733Z,12.20
2018-08-30T21:21:22.298Z,13.50
2018-08-30T21:23:52.502Z,12.50
2018-08-30T21:26:22.770Z,12.00
2018-08-30T21:28:52.052Z,11.70
2018-08-30T21:31:21.721Z,12.27
2018-08-30T21:33:51.525Z,12.00
2018-08-30T21:36:21.560Z,11.07
2018-08-30T21:38:50.699Z,11.70
2018-08-30T21:41:20.436Z,11.10
2018-08-30T21:43:50.422Z,11.47
2018-08-30T21:46:20.466Z,11.47
2018-08-30T21:48:50.387Z,11.30
2018-08-30T21:51:19.722Z,11.47
2018-08-30T21:53:49.134Z,11.83
2018-08-30T21:56:18.384Z,13.10
2018-08-30T21:58:48.501Z,12.80
2018-08-30T22:01:18.679Z,11.43
2018-08-30T22:03:49.713Z,11.00
2018-08-30T22:06:19.076Z,11.60
2018-08-30T22:08:48.269Z,10.60
2018-08-30T22:11:18.701Z,11.47
2018-08-30T22:13:48.009Z,11.30
2018-08-30T22:16:17.524Z,10.63
2018-08-30T22:18:46.884Z,9.97
2018-08-30T22:21:16.936Z,10.00
2018-08-30T22:23:45.900Z,10.10
2018-08-30T22:26:15.836Z,10.37
2018-08-30T22:28:45.582Z,10.90
2018-08-30T22:31:15.558Z,10.33
2018-08-30T22:33:45.272Z,10.47
2018-08-30T22:36:14.318Z,10.93
2018-08-30T22:38:43.802Z,10.50
2018-08-30T22:41:12.990Z,9.60
2018-08-30T22:43:43.547Z,10.80
2018-08-30T22:46:13.107Z,9.40
2018-08-30T22:48:43.264Z,9.30
2018-08-30T22:51:12.453Z,10.43
2018-08-30T22:53:41.928Z,9.20
2018-08-30T22:56:11.465Z,10.40
2018-08-30T22:58:41.749Z,9.97
2018-08-30T23:01:11.046Z,9.47
2018-08-30T23:03:40.747Z,9.63
2018-08-30T23:06:10.049Z,9.40
2018-08-30T23:08:39.765Z,9.60
2018-08-30T23:11:08.915Z,9.60
2018-08-30T23:13:39.182Z,9.80
2018-08-30T23:16:08.633Z,9.77
2018-08-30T23:18:38.111Z,9.90
2018-08-30T23:21:07.110Z,10.00
2018-08-30T23:23:36.890Z,9.73
2018-08-30T23:26:05.993Z,10.10
2018-08-30T23:28:35.132Z,9.33
2018-08-30T23:31:04.319Z,9.53
2018-08-30T23:33:34.752Z,9.87
2018-08-30T23:36:04.027Z,9.13
2018-08-30T23:38:34.437Z,9.93
2018-08-30T23:41:03.916Z,9.33
2018-08-30T23:43:33.299Z,9.77
2018-08-30T23:46:02.592Z,9.63
2018-08-30T23:48:32.579Z,9.23
2018-08-30T23:51:01.822Z,10.57
2018-08-30T23:53:31.276Z,9.03
2018-08-30T23:56:00.786Z,10.10
2018-08-30T23:58:40.897Z,9.90
